createdAt,value
2023-04-10T00:00:57.976Z,45.10
2023-04-10T00:03:03.349Z,45.00
2023-04-10T00:05:06.660Z,45.00
2023-04-10T00:07:08.419Z,45.00
2023-04-10T00:09:10.648Z,45.00
2023-04-10T00:11:12.309Z,45.10
2023-04-10T00:13:14.802Z,45.10
2023-04-10T00:15:16.533Z,45.10
2023-04-10T00:17:18.197Z,45.10
2023-04-10T00:19:19.878Z,45.10
2023-04-10T00:21:21.489Z,45.10
2023-04-10T00:23:24.231Z,45.00
2023-04-10T00:25:26.605Z,45.00
2023-04-10T00:27:28.317Z,44.90
2023-04-10T00:29:30.169Z,44.90
2023-04-10T00:31:32.124Z,44.80
2023-04-10T00:33:33.766Z,44.90
2023-04-10T00:35:35.620Z,44.90
2023-04-10T00:37:37.554Z,44.90
2023-04-10T00:39:39.197Z,44.40
2023-04-10T00:41:41.004Z,44.90
2023-04-10T00:43:43.728Z,45.00
2023-04-10T00:45:45.607Z,44.80
2023-04-10T00:47:47.296Z,44.90
2023-04-10T00:49:49.185Z,44.90
2023-04-10T00:51:51.064Z,44.90
2023-04-10T00:53:54.906Z,44.80
2023-04-10T00:55:57.764Z,44.80
2023-04-10T00:57:59.478Z,44.80
2023-04-10T01:00:01.416Z,44.90
2023-04-10T01:02:03.797Z,45.00
2023-04-10T01:04:06.583Z,44.80
2023-04-10T01:06:34.133Z,44.90
2023-04-10T01:08:55.098Z,44.80
2023-04-10T01:11:06.085Z,44.80
2023-04-10T01:13:22.621Z,44.80
2023-04-10T01:15:27.944Z,44.80
2023-04-10T01:17:34.681Z,44.80
2023-04-10T01:20:01.764Z,44.70
2023-04-10T01:22:05.191Z,44.70
2023-04-10T01:24:31.072Z,44.70
2023-04-10T01:27:00.080Z,44.70
2023-04-10T01:29:08.053Z,44.70
2023-04-10T01:31:15.615Z,44.80
2023-04-10T01:33:20.540Z,44.70
2023-04-10T01:35:22.947Z,44.70
2023-04-10T01:37:31.170Z,44.80
2023-04-10T01:39:37.892Z,44.70
2023-04-10T01:41:43.929Z,44.70
2023-04-10T01:43:48.789Z,44.70
2023-04-10T01:45:52.680Z,44.70
2023-04-10T01:47:55.663Z,44.70
2023-04-10T01:49:58.592Z,44.70
2023-04-10T01:52:01.636Z,44.70
2023-04-10T01:54:05.756Z,45.30
2023-04-10T01:56:09.352Z,44.70
2023-04-10T01:58:12.071Z,44.70
2023-04-10T02:00:13.862Z,44.60
2023-04-10T02:02:15.635Z,44.60
2023-04-10T02:04:17.658Z,44.60
2023-04-10T02:06:43.131Z,44.60
2023-04-10T02:08:57.222Z,44.60
2023-04-10T02:11:22.838Z,44.60
2023-04-10T02:13:27.665Z,44.60
2023-04-10T02:15:32.332Z,44.60
2023-04-10T02:17:35.766Z,44.60
2023-04-10T02:19:38.526Z,44.50
2023-04-10T02:21:42.130Z,44.50
2023-04-10T02:23:43.884Z,44.60
2023-04-10T02:25:45.629Z,44.60
2023-04-10T02:27:47.353Z,44.60
2023-04-10T02:29:49.014Z,44.60
2023-04-10T02:31:50.784Z,45.20
2023-04-10T02:33:52.660Z,44.50
2023-04-10T02:35:54.592Z,44.60
2023-04-10T02:37:56.534Z,44.60
2023-04-10T02:39:58.236Z,44.60
2023-04-10T02:41:59.921Z,44.60
2023-04-10T02:44:01.733Z,44.70
2023-04-10T02:46:03.478Z,44.70
2023-04-10T02:48:08.236Z,44.70
2023-04-10T02:50:10.686Z,44.60
2023-04-10T02:52:12.398Z,44.60
2023-04-10T02:54:14.086Z,44.60
2023-04-10T02:56:15.727Z,44.70
2023-04-10T02:58:17.420Z,44.60
2023-04-10T03:00:19.408Z,44.60
2023-04-10T03:02:21.698Z,44.60
2023-04-10T03:04:23.564Z,44.60
2023-04-10T03:06:28.398Z,44.50
2023-04-10T03:08:30.429Z,45.20
2023-04-10T03:10:32.045Z,44.50
2023-04-10T03:12:33.696Z,44.50
2023-04-10T03:14:35.301Z,44.50
2023-04-10T03:16:37.017Z,44.50
2023-04-10T03:18:38.892Z,44.60
2023-04-10T03:20:41.099Z,44.50
2023-04-10T03:22:43.051Z,44.60
2023-04-10T03:24:44.649Z,44.60
2023-04-10T03:26:46.659Z,44.60
2023-04-10T03:28:48.280Z,44.50
2023-04-10T03:30:50.695Z,44.40
2023-04-10T03:32:52.345Z,44.70
2023-04-10T03:34:54.230Z,44.80
2023-04-10T03:36:55.924Z,44.60
2023-04-10T03:38:57.554Z,44.70
2023-04-10T03:40:59.210Z,44.60
2023-04-10T03:43:01.155Z,44.60
2023-04-10T03:45:04.619Z,44.60
2023-04-10T03:47:06.299Z,44.40
2023-04-10T03:49:07.932Z,44.80
2023-04-10T03:51:09.805Z,44.10
2023-04-10T03:53:11.450Z,43.90
2023-04-10T03:55:14.330Z,43.90
2023-04-10T03:57:18.534Z,43.90
2023-04-10T03:59:21.563Z,43.90
2023-04-10T04:01:24.477Z,43.80
2023-04-10T04:03:26.489Z,43.80
2023-04-10T04:05:28.368Z,43.70
2023-04-10T04:07:30.132Z,43.70
2023-04-10T04:09:31.895Z,43.90
2023-04-10T04:11:33.678Z,44.00
2023-04-10T04:13:35.589Z,44.00
2023-04-10T04:15:37.375Z,44.10
2023-04-10T04:17:39.099Z,44.00
2023-04-10T04:19:40.753Z,44.00
2023-04-10T04:21:42.358Z,44.10
2023-04-10T04:23:44.270Z,44.10
2023-04-10T04:25:46.220Z,44.10
2023-04-10T04:27:47.874Z,44.10
2023-04-10T04:29:49.544Z,44.20
2023-04-10T04:31:51.231Z,44.20
2023-04-10T04:33:53.036Z,44.10
2023-04-10T04:35:54.781Z,44.10
2023-04-10T04:37:56.453Z,44.10
2023-04-10T04:39:58.082Z,44.00
2023-04-10T04:41:59.741Z,44.10
2023-04-10T04:44:02.308Z,44.00
2023-04-10T04:46:04.185Z,44.20
2023-04-10T04:48:06.010Z,44.10
2023-04-10T04:50:08.604Z,44.50
2023-04-10T04:52:10.859Z,44.60
2023-04-10T04:54:12.511Z,44.60
2023-04-10T04:56:14.199Z,44.50
2023-04-10T04:58:15.922Z,44.60
2023-04-10T05:00:17.646Z,44.80
2023-04-10T05:02:22.426Z,44.90
2023-04-10T05:04:24.936Z,44.80
2023-04-10T05:06:26.718Z,44.80
2023-04-10T05:08:28.403Z,44.80
2023-04-10T05:10:30.018Z,44.90
2023-04-10T05:12:31.740Z,44.90
2023-04-10T05:14:33.465Z,44.80
2023-04-10T05:16:35.241Z,44.80
2023-04-10T05:18:37.131Z,45.00
2023-04-10T05:20:39.024Z,44.90
2023-04-10T05:22:41.003Z,44.80
2023-04-10T05:24:42.654Z,44.90
2023-04-10T05:26:44.416Z,45.10
2023-04-10T05:28:46.453Z,44.70
2023-04-10T05:30:48.191Z,45.00
2023-04-10T05:32:49.854Z,44.80
2023-04-10T05:34:51.517Z,44.90
2023-04-10T05:36:53.178Z,44.90
2023-04-10T05:38:54.936Z,44.70
2023-04-10T05:40:56.673Z,44.70
2023-04-10T05:42:58.334Z,44.70
2023-04-10T05:44:59.945Z,44.70
2023-04-10T05:47:01.700Z,44.80
2023-04-10T05:49:03.345Z,44.90
2023-04-10T05:51:05.601Z,44.60
2023-04-10T05:53:07.365Z,44.70
2023-04-10T05:55:09.541Z,44.70
2023-04-10T05:57:11.219Z,44.60
2023-04-10T05:59:13.353Z,44.50
2023-04-10T06:01:15.054Z,44.60
2023-04-10T06:03:16.776Z,44.80
2023-04-10T06:05:18.666Z,44.50
2023-04-10T06:07:20.331Z,44.60
2023-04-10T06:09:22.010Z,44.30
2023-04-10T06:11:23.656Z,44.40
2023-04-10T06:13:25.598Z,44.20
2023-04-10T06:15:27.355Z,44.20
2023-04-10T06:17:29.023Z,44.20
2023-04-10T06:19:30.775Z,43.60
2023-04-10T06:21:32.445Z,41.30
2023-04-10T06:23:34.187Z,42.90
2023-04-10T06:25:35.926Z,42.30
2023-04-10T06:27:37.656Z,43.00
2023-04-10T06:29:39.374Z,43.10
2023-04-10T06:31:41.146Z,43.30
2023-04-10T06:33:42.767Z,43.70
2023-04-10T06:35:44.503Z,43.70
2023-04-10T06:37:46.200Z,43.50
2023-04-10T06:39:48.044Z,43.90
2023-04-10T06:41:49.679Z,43.70
2023-04-10T06:43:51.573Z,43.60
2023-04-10T06:45:53.177Z,43.60
2023-04-10T06:47:55.000Z,43.70
2023-04-10T06:49:56.702Z,43.90
2023-04-10T06:51:58.434Z,43.90
2023-04-10T06:54:00.206Z,44.70
2023-04-10T06:56:03.549Z,44.00
2023-04-10T06:58:05.380Z,44.00
2023-04-10T07:00:07.987Z,44.10
2023-04-10T07:02:09.795Z,44.20
2023-04-10T07:04:11.504Z,44.10
2023-04-10T07:06:13.419Z,44.20
2023-04-10T07:08:15.721Z,44.10
2023-04-10T07:10:17.376Z,44.20
2023-04-10T07:12:18.995Z,44.20
2023-04-10T07:14:20.662Z,44.40
2023-04-10T07:16:22.357Z,43.50
2023-04-10T07:18:24.101Z,41.90
2023-04-10T07:20:25.831Z,43.30
2023-04-10T07:22:27.920Z,43.80
2023-04-10T07:24:30.819Z,43.80
2023-04-10T07:26:32.558Z,44.00
2023-04-10T07:28:34.245Z,44.00
2023-04-10T07:30:36.481Z,42.80
2023-04-10T07:32:39.826Z,42.20
2023-04-10T07:34:42.145Z,43.30
2023-04-10T07:36:45.871Z,43.70
2023-04-10T07:38:47.710Z,43.90
2023-04-10T07:40:49.430Z,43.90
2023-04-10T07:42:53.329Z,43.70
2023-04-10T07:44:55.541Z,43.80
2023-04-10T07:46:57.203Z,43.70
2023-04-10T07:48:58.890Z,42.80
2023-04-10T07:51:00.591Z,43.20
2023-04-10T07:53:07.489Z,43.20
2023-04-10T07:55:09.477Z,42.10
2023-04-10T07:57:11.105Z,43.10
2023-04-10T07:59:12.802Z,43.00
2023-04-10T08:01:15.557Z,43.00
2023-04-10T08:03:17.415Z,43.10
2023-04-10T08:05:19.326Z,43.00
2023-04-10T08:07:24.012Z,43.00
2023-04-10T08:09:25.816Z,43.30
2023-04-10T08:11:28.421Z,43.20
2023-04-10T08:13:30.166Z,43.10
2023-04-10T08:15:31.930Z,43.10
2023-04-10T08:17:33.689Z,43.10
2023-04-10T08:19:36.289Z,43.10
2023-04-10T08:21:37.957Z,43.20
2023-04-10T08:23:39.589Z,43.30
2023-04-10T08:25:41.307Z,43.40
2023-04-10T08:27:43.011Z,43.50
2023-04-10T08:29:44.754Z,43.50
2023-04-10T08:31:46.458Z,43.70
2023-04-10T08:33:48.585Z,43.60
2023-04-10T08:35:50.350Z,43.70
2023-04-10T08:38:07.594Z,43.80
2023-04-10T08:40:13.656Z,43.80
2023-04-10T08:42:15.509Z,43.90
2023-04-10T08:44:17.527Z,43.80
2023-04-10T08:46:20.111Z,43.80
2023-04-10T08:48:25.196Z,43.80
2023-04-10T08:50:29.413Z,43.80
2023-04-10T08:52:34.422Z,43.80
2023-04-10T08:54:38.910Z,43.80
2023-04-10T08:56:42.742Z,43.80
2023-04-10T08:58:45.020Z,43.70
2023-04-10T09:00:47.160Z,44.50
2023-04-10T09:02:51.110Z,43.80
2023-04-10T09:04:55.257Z,43.80
2023-04-10T09:06:57.070Z,43.70
2023-04-10T09:11:02.688Z,43.80
2023-04-10T09:13:04.396Z,43.70
2023-04-10T09:15:06.439Z,43.70
2023-04-10T09:17:18.447Z,43.70
2023-04-10T09:19:30.924Z,43.60
2023-04-10T09:21:32.624Z,43.70
2023-04-10T09:23:34.243Z,43.60
2023-04-10T09:25:38.955Z,43.60
2023-04-10T09:27:42.061Z,43.50
2023-04-10T09:29:48.519Z,43.50
2023-04-10T09:31:50.932Z,43.40
2023-04-10T09:34:27.229Z,43.30
2023-04-10T09:36:29.012Z,43.20
2023-04-10T09:38:30.723Z,43.20
2023-04-10T09:40:32.392Z,43.20
2023-04-10T09:42:37.720Z,43.20
2023-04-10T09:44:40.981Z,43.10
2023-04-10T09:46:42.588Z,43.00
2023-04-10T09:48:57.001Z,43.10
2023-04-10T09:50:58.627Z,43.00
2023-04-10T09:53:00.270Z,42.90
2023-04-10T09:55:08.528Z,42.90
2023-04-10T09:57:11.145Z,42.90
2023-04-10T09:59:15.672Z,42.80
2023-04-10T10:01:17.836Z,42.80
2023-04-10T10:03:24.105Z,42.70
2023-04-10T10:05:30.615Z,42.70
2023-04-10T10:07:32.634Z,42.70
2023-04-10T10:09:36.289Z,42.60
2023-04-10T10:11:37.927Z,42.50
2023-04-10T10:13:49.456Z,42.50
2023-04-10T10:15:59.890Z,42.50
2023-04-10T10:18:17.737Z,42.50
2023-04-10T10:20:22.279Z,42.50
2023-04-10T10:22:26.253Z,42.50
2023-04-10T10:24:29.655Z,42.50
2023-04-10T10:26:34.791Z,42.50
2023-04-10T10:28:37.717Z,42.50
2023-04-10T10:30:40.242Z,42.50
2023-04-10T10:32:42.231Z,42.50
2023-04-10T10:34:44.735Z,42.40
2023-04-10T10:36:46.343Z,42.30
2023-04-10T10:39:17.050Z,42.30
2023-04-10T10:41:27.178Z,42.20
2023-04-10T10:43:44.138Z,42.30
2023-04-10T10:46:02.930Z,42.20
2023-04-10T10:48:04.764Z,42.20
2023-04-10T10:50:06.896Z,42.20
2023-04-10T10:52:08.576Z,42.20
2023-04-10T10:54:36.619Z,42.20
2023-04-10T10:56:40.636Z,42.20
2023-04-10T10:58:50.619Z,42.20
2023-04-10T11:00:52.265Z,42.20
2023-04-10T11:03:09.384Z,42.20
2023-04-10T11:05:31.423Z,42.30
2023-04-10T11:08:01.988Z,42.30
2023-04-10T11:10:03.726Z,42.30
2023-04-10T11:12:07.713Z,42.30
2023-04-10T11:14:09.344Z,42.20
2023-04-10T11:16:11.226Z,42.20
2023-04-10T11:18:12.864Z,42.20
2023-04-10T11:20:14.569Z,42.10
2023-04-10T11:22:16.600Z,42.10
2023-04-10T11:24:18.616Z,42.00
2023-04-10T11:26:35.766Z,41.90
2023-04-10T11:28:41.024Z,41.90
2023-04-10T11:30:42.846Z,41.90
2023-04-10T11:32:45.428Z,41.90
2023-04-10T11:34:47.125Z,41.90
2023-04-10T11:36:49.179Z,41.80
2023-04-10T11:38:54.374Z,41.80
2023-04-10T11:41:04.015Z,41.80
2023-04-10T11:43:14.045Z,41.80
2023-04-10T11:45:28.889Z,41.80
2023-04-10T11:47:30.854Z,41.70
2023-04-10T11:49:34.669Z,41.70
2023-04-10T11:51:38.061Z,42.40
2023-04-10T11:53:41.230Z,41.70
2023-04-10T11:55:42.910Z,41.60
2023-04-10T11:57:46.019Z,41.80
2023-04-10T11:59:51.060Z,41.60
2023-04-10T12:01:55.897Z,41.50
2023-04-10T12:03:57.911Z,41.50
2023-04-10T12:05:59.729Z,41.60
2023-04-10T12:08:02.137Z,41.50
2023-04-10T12:10:04.102Z,41.40
2023-04-10T12:12:07.442Z,41.50
2023-04-10T12:14:09.136Z,41.50
2023-04-10T12:16:11.818Z,41.40
2023-04-10T12:18:13.626Z,41.40
2023-04-10T12:20:16.651Z,41.30
2023-04-10T12:22:18.574Z,41.40
2023-04-10T12:24:45.002Z,42.10
2023-04-10T12:26:49.807Z,41.50
2023-04-10T12:28:54.861Z,41.30
2023-04-10T12:30:57.190Z,41.30
2023-04-10T12:33:03.638Z,41.40
2023-04-10T12:35:05.956Z,42.00
2023-04-10T12:37:09.723Z,41.40
2023-04-10T12:39:23.731Z,42.10
2023-04-10T12:41:27.236Z,41.40
2023-04-10T12:43:34.073Z,41.40
2023-04-10T12:45:45.470Z,41.40
2023-04-10T12:47:53.853Z,41.40
2023-04-10T12:50:14.904Z,41.20
2023-04-10T12:52:22.912Z,41.40
2023-04-10T12:54:33.095Z,41.40
2023-04-10T12:56:42.643Z,41.30
2023-04-10T12:58:44.381Z,41.30
2023-04-10T13:00:47.182Z,41.40
2023-04-10T13:02:49.370Z,41.40
2023-04-10T13:04:51.296Z,41.40
2023-04-10T13:06:53.212Z,41.50
2023-04-10T13:08:55.977Z,41.40
2023-04-10T13:11:03.810Z,41.30
2023-04-10T13:13:06.938Z,41.40
2023-04-10T13:15:10.609Z,42.20
2023-04-10T13:17:12.503Z,41.50
2023-04-10T13:19:14.149Z,41.50
2023-04-10T13:21:19.840Z,41.50
2023-04-10T13:23:21.616Z,41.50
2023-04-10T13:25:23.420Z,41.50
2023-04-10T13:27:25.064Z,41.60
2023-04-10T13:29:26.861Z,41.50
2023-04-10T13:31:28.594Z,41.50
2023-04-10T13:33:30.305Z,41.50
2023-04-10T13:35:32.120Z,41.60
2023-04-10T13:37:33.799Z,41.50
2023-04-10T13:39:35.474Z,41.50
2023-04-10T13:41:38.182Z,41.60
2023-04-10T13:43:39.802Z,41.60
2023-04-10T13:45:41.727Z,41.50
2023-04-10T13:47:43.978Z,41.50
2023-04-10T13:49:45.829Z,41.30
2023-04-10T13:51:47.897Z,41.60
2023-04-10T13:53:49.616Z,41.40
2023-04-10T13:55:51.290Z,41.50
2023-04-10T13:57:53.023Z,41.40
2023-04-10T13:59:54.661Z,41.40
2023-04-10T14:01:56.365Z,41.50
2023-04-10T14:03:58.260Z,41.40
2023-04-10T14:06:00.035Z,41.40
2023-04-10T14:08:01.744Z,41.50
2023-04-10T14:10:03.624Z,41.50
2023-04-10T14:12:05.309Z,41.40
2023-04-10T14:14:06.960Z,41.50
2023-04-10T14:16:08.790Z,41.50
2023-04-10T14:18:10.908Z,41.40
2023-04-10T14:20:13.284Z,41.50
2023-04-10T14:22:15.029Z,41.50
2023-04-10T14:24:16.713Z,41.30
2023-04-10T14:26:18.351Z,41.30
2023-04-10T14:28:20.020Z,40.30
2023-04-10T14:30:21.698Z,40.50
2023-04-10T14:32:23.426Z,41.00
2023-04-10T14:34:25.196Z,41.10
2023-04-10T14:36:27.832Z,41.40
2023-04-10T14:38:29.636Z,41.20
2023-04-10T14:40:31.437Z,41.50
2023-04-10T14:42:33.099Z,41.30
2023-04-10T14:44:34.769Z,41.90
2023-04-10T14:46:37.325Z,41.90
2023-04-10T14:48:39.253Z,41.60
2023-04-10T14:50:41.061Z,41.70
2023-04-10T14:52:42.722Z,41.60
2023-04-10T14:54:44.418Z,42.00
2023-04-10T14:56:46.042Z,41.60
2023-04-10T14:58:47.737Z,41.80
2023-04-10T15:00:50.579Z,41.90
2023-04-10T15:02:52.548Z,41.80
2023-04-10T15:04:54.423Z,42.00
2023-04-10T15:06:56.064Z,41.90
2023-04-10T15:08:57.881Z,41.70
2023-04-10T15:10:59.501Z,41.80
2023-04-10T15:13:01.118Z,42.30
2023-04-10T15:15:02.798Z,41.90
2023-04-10T15:17:04.749Z,42.10
2023-04-10T15:19:06.593Z,42.10
2023-04-10T15:21:08.243Z,42.10
2023-04-10T15:23:11.446Z,42.10
2023-04-10T15:25:13.160Z,42.00
2023-04-10T15:27:14.830Z,42.00
2023-04-10T15:29:16.540Z,42.10
2023-04-10T15:31:22.573Z,42.10
2023-04-10T15:33:24.341Z,41.90
2023-04-10T15:35:27.815Z,41.80
2023-04-10T15:37:29.421Z,41.70
2023-04-10T15:39:31.049Z,41.80
2023-04-10T15:41:33.078Z,41.80
2023-04-10T15:43:35.225Z,41.70
2023-04-10T15:45:37.425Z,41.90
2023-04-10T15:47:39.075Z,41.90
2023-04-10T15:49:40.927Z,42.40
2023-04-10T15:51:42.642Z,44.40
2023-04-10T15:53:44.273Z,44.10
2023-04-10T15:55:45.998Z,43.60
2023-04-10T15:57:47.739Z,43.90
2023-04-10T15:59:53.256Z,45.40
2023-04-10T16:01:54.954Z,44.90
2023-04-10T16:03:56.882Z,45.10
2023-04-10T16:05:58.702Z,45.30
2023-04-10T16:08:02.216Z,45.40
2023-04-10T16:10:05.601Z,45.60
2023-04-10T16:12:07.392Z,45.80
2023-04-10T16:14:09.055Z,46.00
2023-04-10T16:16:15.413Z,46.40
2023-04-10T16:18:17.119Z,46.30
2023-04-10T16:20:18.919Z,46.10
2023-04-10T16:22:20.616Z,46.20
2023-04-10T16:24:22.558Z,46.40
2023-04-10T16:26:24.262Z,46.40
2023-04-10T16:28:26.089Z,46.60
2023-04-10T16:30:27.816Z,46.80
2023-04-10T16:32:31.634Z,47.10
2023-04-10T16:34:34.720Z,47.30
2023-04-10T16:36:36.890Z,47.60
2023-04-10T16:38:38.646Z,47.80
2023-04-10T16:40:40.310Z,46.70
2023-04-10T16:42:42.940Z,46.70
2023-04-10T16:44:44.638Z,46.50
2023-04-10T16:46:46.377Z,46.90
2023-04-10T16:48:48.043Z,47.00
2023-04-10T16:50:49.782Z,47.10
2023-04-10T16:52:51.444Z,47.00
2023-04-10T16:54:53.155Z,47.10
2023-04-10T16:56:54.758Z,46.80
2023-04-10T16:58:57.443Z,47.00
2023-04-10T17:00:59.378Z,47.00
2023-04-10T17:03:01.847Z,47.00
2023-04-10T17:05:03.752Z,46.90
2023-04-10T17:07:05.620Z,47.10
2023-04-10T17:09:07.464Z,46.30
2023-04-10T17:11:09.213Z,46.10
2023-04-10T17:13:10.889Z,45.40
2023-04-10T17:15:12.570Z,45.40
2023-04-10T17:17:14.392Z,45.60
2023-04-10T17:19:17.413Z,45.60
2023-04-10T17:21:19.161Z,45.50
2023-04-10T17:23:20.824Z,45.20
2023-04-10T17:25:22.516Z,45.10
2023-04-10T17:27:24.182Z,44.80
2023-04-10T17:29:25.855Z,45.10
2023-04-10T17:31:28.171Z,45.00
2023-04-10T17:33:29.948Z,44.70
2023-04-10T17:35:31.601Z,45.00
2023-04-10T17:37:33.232Z,42.10
2023-04-10T17:39:34.903Z,40.40
2023-04-10T17:41:36.584Z,41.80
2023-04-10T17:43:38.403Z,42.80
2023-04-10T17:45:40.391Z,42.30
2023-04-10T17:47:42.201Z,42.70
2023-04-10T17:49:43.874Z,43.40
2023-04-10T17:51:45.607Z,43.60
2023-04-10T17:53:47.240Z,44.00
2023-04-10T17:55:48.879Z,43.80
2023-04-10T17:57:50.585Z,43.60
2023-04-10T17:59:52.215Z,43.70
2023-04-10T18:01:54.004Z,43.50
2023-04-10T18:03:59.301Z,43.40
2023-04-10T18:06:01.133Z,43.70
2023-04-10T18:08:02.745Z,43.40
2023-04-10T18:10:05.979Z,43.40
2023-04-10T18:12:07.696Z,43.50
2023-04-10T18:14:10.226Z,43.70
2023-04-10T18:16:12.190Z,43.40
2023-04-10T18:18:14.089Z,43.50
2023-04-10T18:20:15.877Z,43.40
2023-04-10T18:22:18.635Z,43.40
2023-04-10T18:24:20.332Z,43.50
2023-04-10T18:26:22.053Z,43.80
2023-04-10T18:28:23.813Z,43.80
2023-04-10T18:30:25.445Z,43.90
2023-04-10T18:32:27.265Z,43.30
2023-04-10T18:34:29.004Z,43.20
2023-04-10T18:36:31.373Z,43.10
2023-04-10T18:38:34.116Z,43.20
2023-04-10T18:40:36.904Z,43.10
2023-04-10T18:42:38.756Z,43.30
2023-04-10T18:44:40.486Z,43.50
2023-04-10T18:46:46.259Z,43.70
2023-04-10T18:48:53.387Z,43.90
2023-04-10T18:50:55.073Z,44.00
2023-04-10T18:52:56.710Z,44.10
2023-04-10T18:54:58.442Z,44.30
2023-04-10T18:57:00.137Z,45.10
2023-04-10T18:59:01.865Z,44.30
2023-04-10T19:01:03.607Z,44.10
2023-04-10T19:03:05.405Z,44.90
2023-04-10T19:05:08.465Z,44.30
2023-04-10T19:07:10.256Z,44.40
2023-04-10T19:09:12.823Z,44.40
2023-04-10T19:11:14.455Z,44.50
2023-04-10T19:13:16.279Z,44.40
2023-04-10T19:15:19.051Z,44.50
2023-04-10T19:17:21.804Z,44.40
2023-04-10T19:19:23.683Z,44.50
2023-04-10T19:21:26.232Z,44.30
2023-04-10T19:23:27.944Z,43.70
2023-04-10T19:25:29.654Z,44.20
2023-04-10T19:27:31.293Z,44.50
2023-04-10T19:29:32.887Z,44.40
2023-04-10T19:31:34.633Z,44.30
2023-04-10T19:33:36.416Z,44.30
2023-04-10T19:35:38.161Z,44.40
2023-04-10T19:37:40.011Z,44.40
2023-04-10T19:39:41.624Z,44.70
2023-04-10T19:41:43.930Z,44.70
2023-04-10T19:43:45.766Z,44.80
2023-04-10T19:45:47.554Z,44.70
2023-04-10T19:47:52.137Z,44.80
2023-04-10T19:49:53.958Z,44.90
2023-04-10T19:51:55.684Z,44.90
2023-04-10T19:53:58.453Z,44.80
2023-04-10T19:56:00.422Z,45.00
2023-04-10T19:58:02.067Z,45.00
2023-04-10T20:00:03.897Z,44.90
2023-04-10T20:02:06.426Z,45.00
2023-04-10T20:04:08.350Z,44.70
2023-04-10T20:06:10.408Z,45.00
2023-04-10T20:08:12.158Z,44.90
2023-04-10T20:10:13.835Z,45.30
2023-04-10T20:12:16.232Z,44.80
2023-04-10T20:14:17.870Z,45.00
2023-04-10T20:16:19.595Z,44.80
2023-04-10T20:18:21.360Z,44.90
2023-04-10T20:20:23.039Z,44.80
2023-04-10T20:22:25.302Z,44.90
2023-04-10T20:24:26.955Z,44.60
2023-04-10T20:26:28.811Z,44.70
2023-04-10T20:28:31.665Z,44.50
2023-04-10T20:30:34.702Z,44.60
2023-04-10T20:32:36.757Z,44.60
2023-04-10T20:34:38.685Z,44.70
2023-04-10T20:36:40.460Z,44.50
2023-04-10T20:38:42.129Z,44.40
2023-04-10T20:40:43.798Z,44.40
2023-04-10T20:42:45.636Z,44.60
2023-04-10T20:44:47.284Z,44.60
2023-04-10T20:46:50.292Z,44.60
2023-04-10T20:48:52.111Z,44.50
2023-04-10T20:50:53.846Z,44.50
2023-04-10T20:52:55.558Z,44.60
2023-04-10T20:54:57.221Z,44.60
2023-04-10T20:57:00.149Z,44.50
2023-04-10T20:59:04.891Z,44.80
2023-04-10T21:01:09.587Z,44.90
2023-04-10T21:03:11.607Z,45.00
2023-04-10T21:05:13.648Z,44.90
2023-04-10T21:07:15.417Z,45.10
2023-04-10T21:09:17.124Z,45.20
2023-04-10T21:11:22.072Z,45.20
2023-04-10T21:13:23.703Z,45.40
2023-04-10T21:15:25.611Z,45.30
2023-04-10T21:17:31.025Z,45.50
2023-04-10T21:19:32.817Z,45.50
2023-04-10T21:21:34.489Z,45.70
2023-04-10T21:23:36.196Z,45.70
2023-04-10T21:25:39.136Z,45.80
2023-04-10T21:27:40.786Z,46.00
2023-04-10T21:29:42.449Z,46.10
2023-04-10T21:31:44.108Z,46.20
2023-04-10T21:33:45.751Z,46.10
2023-04-10T21:35:47.977Z,46.00
2023-04-10T21:37:54.612Z,46.00
2023-04-10T21:39:56.201Z,45.90
2023-04-10T21:41:57.857Z,45.80
2023-04-10T21:44:00.886Z,46.30
2023-04-10T21:46:03.251Z,46.30
2023-04-10T21:48:05.362Z,46.30
2023-04-10T21:50:07.661Z,46.30
2023-04-10T21:52:11.000Z,46.20
2023-04-10T21:54:12.750Z,46.30
2023-04-10T21:56:14.547Z,46.40
2023-04-10T21:58:16.226Z,46.60
2023-04-10T22:00:18.442Z,46.50
2023-04-10T22:02:21.219Z,46.50
2023-04-10T22:04:23.163Z,46.50
2023-04-10T22:06:24.885Z,46.50
2023-04-10T22:08:26.994Z,46.60
2023-04-10T22:10:28.585Z,46.50
2023-04-10T22:12:30.649Z,46.40
2023-04-10T22:14:32.368Z,46.40
2023-04-10T22:16:33.976Z,46.50
2023-04-10T22:18:35.716Z,46.50
2023-04-10T22:20:37.370Z,46.60
2023-04-10T22:22:39.095Z,46.80
2023-04-10T22:24:40.887Z,46.90
2023-04-10T22:26:45.806Z,46.80
2023-04-10T22:28:47.401Z,47.10
2023-04-10T22:30:49.053Z,47.20
2023-04-10T22:32:54.144Z,47.20
2023-04-10T22:34:55.869Z,47.10
2023-04-10T22:36:57.682Z,47.20
2023-04-10T22:38:59.532Z,47.20
2023-04-10T22:41:01.193Z,47.20
2023-04-10T22:43:02.858Z,47.20
2023-04-10T22:45:05.022Z,47.10
2023-04-10T22:47:06.711Z,47.10
2023-04-10T22:49:08.434Z,47.10
2023-04-10T22:51:11.552Z,47.30
2023-04-10T22:53:13.229Z,47.20
2023-04-10T22:55:14.933Z,47.20
2023-04-10T22:57:16.618Z,47.30
2023-04-10T22:59:18.429Z,47.30
2023-04-10T23:01:20.269Z,47.40
2023-04-10T23:03:22.000Z,47.40
2023-04-10T23:05:23.666Z,47.30
2023-04-10T23:07:27.722Z,47.30
2023-04-10T23:09:29.356Z,47.30
2023-04-10T23:11:31.000Z,47.30
2023-04-10T23:13:32.662Z,47.20
2023-04-10T23:15:34.353Z,47.30
2023-04-10T23:17:36.150Z,47.20
2023-04-10T23:19:37.839Z,47.20
2023-04-10T23:21:39.499Z,47.20
2023-04-10T23:23:41.145Z,47.30
2023-04-10T23:25:42.897Z,47.50
2023-04-10T23:27:44.574Z,47.30
2023-04-10T23:29:46.287Z,47.30
2023-04-10T23:31:48.064Z,47.40
2023-04-10T23:33:49.835Z,47.40
2023-04-10T23:35:51.586Z,47.30
2023-04-10T23:37:53.769Z,47.50
2023-04-10T23:39:55.387Z,47.40
2023-04-10T23:41:57.346Z,47.40
2023-04-10T23:43:58.989Z,47.20
2023-04-10T23:46:00.853Z,47.30
2023-04-10T23:48:02.600Z,47.30
2023-04-10T23:50:04.644Z,47.40
2023-04-10T23:52:06.286Z,47.20
2023-04-10T23:54:07.978Z,47.20
2023-04-10T23:56:09.859Z,47.20
2023-04-10T23:58:11.597Z,47.10
